sensor_id;sensor_type;location;lat;lon;timestamp;temperature;humidity
1377;DHT22;682;52.502;13.488;2022-09-09T01:22:47;15.00;1.00
1377;DHT22;682;52.502;13.488;2022-09-09T01:28:55;15.00;1.00
1377;DHT22;682;52.502;13.488;2022-09-09T01:34:36;15.10;1.00
1377;DHT22;682;52.502;13.488;2022-09-09T01:37:23;15.10;1.00
1377;DHT22;682;52.502;13.488;2022-09-09T01:39:50;15.00;1.00
1377;DHT22;682;52.502;13.488;2022-09-09T01:42:17;15.00;1.00
1377;DHT22;682;52.502;13.488;2022-09-09T01:44:47;15.00;1.00
1377;DHT22;682;52.502;13.488;2022-09-09T01:47:17;15.00;1.00
1377;DHT22;682;52.502;13.488;2022-09-09T01:49:46;15.00;1.00
1377;DHT22;682;52.502;13.488;2022-09-09T01:52:15;14.90;1.00
1377;DHT22;682;52.502;13.488;2022-09-09T01:54:44;14.90;1.00
1377;DHT22;682;52.502;13.488;2022-09-09T01:57:25;14.80;1.00
1377;DHT22;682;52.502;13.488;2022-09-09T02:00:19;14.80;1.00
1377;DHT22;682;52.502;13.488;2022-09-09T02:03:06;14.80;1.00
1377;DHT22;682;52.502;13.488;2022-09-09T02:05:51;14.80;1.00
1377;DHT22;682;52.502;13.488;2022-09-09T02:08:42;14.70;1.00
1377;DHT22;682;52.502;13.488;2022-09-09T02:11:18;14.70;1.00
1377;DHT22;682;52.502;13.488;2022-09-09T02:14:06;14.60;1.00
1377;DHT22;682;52.502;13.488;2022-09-09T02:16:47;14.60;1.00
1377;DHT22;682;52.502;13.488;2022-09-09T02:19:39;14.60;1.00
1377;DHT22;682;52.502;13.488;2022-09-09T02:22:17;14.60;1.00
1377;DHT22;682;52.502;13.488;2022-09-09T02:25:18;14.50;1.00
1377;DHT22;682;52.502;13.488;2022-09-09T02:28:26;14.50;1.00
1377;DHT22;682;52.502;13.488;2022-09-09T02:31:08;14.50;1.00
1377;DHT22;682;52.502;13.488;2022-09-09T02:33:58;14.60;1.00
1377;DHT22;682;52.502;13.488;2022-09-09T02:36:29;14.60;1.00
1377;DHT22;682;52.502;13.488;2022-09-09T02:39:17;14.60;1.00
1377;DHT22;682;52.502;13.488;2022-09-09T02:41:46;14.60;1.00
1377;DHT22;682;52.502;13.488;2022-09-09T02:44:26;14.60;1.00
1377;DHT22;682;52.502;13.488;2022-09-09T02:47:19;14.60;1.00
1377;DHT22;682;52.502;13.488;2022-09-09T02:50:05;14.60;1.00
1377;DHT22;682;52.502;13.488;2022-09-09T02:52:46;14.60;1.00
1377;DHT22;682;52.502;13.488;2022-09-09T02:55:20;14.50;1.00
1377;DHT22;682;52.502;13.488;2022-09-09T02:57:57;14.40;1.00
1377;DHT22;682;52.502;13.488;2022-09-09T03:00:35;14.50;1.00
1377;DHT22;682;52.502;13.488;2022-09-09T03:03:06;14.50;1.00
1377;DHT22;682;52.502;13.488;2022-09-09T03:05:39;14.60;1.00
1377;DHT22;682;52.502;13.488;2022-09-09T03:08:19;14.50;1.00
1377;DHT22;682;52.502;13.488;2022-09-09T03:11:07;14.50;1.00
1377;DHT22;682;52.502;13.488;2022-09-09T03:13:38;14.40;1.00
1377;DHT22;682;52.502;13.488;2022-09-09T03:16:06;14.40;1.00
1377;DHT22;682;52.502;13.488;2022-09-09T03:18:36;14.40;1.00
1377;DHT22;682;52.502;13.488;2022-09-09T03:21:09;14.40;1.00
1377;DHT22;682;52.502;13.488;2022-09-09T03:23:47;14.30;1.00
1377;DHT22;682;52.502;13.488;2022-09-09T03:26:17;14.40;1.00
1377;DHT22;682;52.502;13.488;2022-09-09T03:28:47;14.40;1.00
1377;DHT22;682;52.502;13.488;2022-09-09T03:31:28;14.30;1.00
1377;DHT22;682;52.502;13.488;2022-09-09T03:34:07;14.30;1.00
1377;DHT22;682;52.502;13.488;2022-09-09T03:36:49;14.30;1.00
1377;DHT22;682;52.502;13.488;2022-09-09T03:39:26;14.30;1.00
1377;DHT22;682;52.502;13.488;2022-09-09T03:41:55;14.30;1.00
1377;DHT22;682;52.502;13.488;2022-09-09T03:44:49;14.30;1.00
1377;DHT22;682;52.502;13.488;2022-09-09T03:47:26;14.30;1.00
1377;DHT22;682;52.502;13.488;2022-09-09T03:49:56;14.30;1.00
1377;DHT22;682;52.502;13.488;2022-09-09T03:52:56;14.30;1.00
1377;DHT22;682;52.502;13.488;2022-09-09T03:55:37;14.20;1.00
1377;DHT22;682;52.502;13.488;2022-09-09T04:01:47;14.20;1.00
1377;DHT22;682;52.502;13.488;2022-09-09T04:04:27;14.20;1.00
1377;DHT22;682;52.502;13.488;2022-09-09T04:06:56;14.20;1.00
1377;DHT22;682;52.502;13.488;2022-09-09T04:10:08;14.10;1.00
1377;DHT22;682;52.502;13.488;2022-09-09T04:15:58;14.10;1.00
1377;DHT22;682;52.502;13.488;2022-09-09T04:18:47;14.10;1.00
1377;DHT22;682;52.502;13.488;2022-09-09T04:21:38;14.00;1.00
1377;DHT22;682;52.502;13.488;2022-09-09T04:24:17;14.00;1.00
1377;DHT22;682;52.502;13.488;2022-09-09T04:26:48;14.00;1.00
1377;DHT22;682;52.502;13.488;2022-09-09T04:29:15;13.90;1.00
1377;DHT22;682;52.502;13.488;2022-09-09T04:31:51;13.90;1.00
1377;DHT22;682;52.502;13.488;2022-09-09T04:34:18;13.90;1.00
1377;DHT22;682;52.502;13.488;2022-09-09T04:36:46;13.90;1.00
1377;DHT22;682;52.502;13.488;2022-09-09T04:39:13;13.90;1.00
1377;DHT22;682;52.502;13.488;2022-09-09T04:41:46;13.90;1.00
1377;DHT22;682;52.502;13.488;2022-09-09T04:44:19;13.90;1.00
1377;DHT22;682;52.502;13.488;2022-09-09T04:46:49;13.90;1.00
1377;DHT22;682;52.502;13.488;2022-09-09T04:49:16;14.00;1.00
1377;DHT22;682;52.502;13.488;2022-09-09T04:51:46;14.00;1.00
1377;DHT22;682;52.502;13.488;2022-09-09T04:54:19;14.00;1.00
1377;DHT22;682;52.502;13.488;2022-09-09T04:56:47;14.00;1.00
1377;DHT22;682;52.502;13.488;2022-09-09T04:59:17;14.10;1.00
1377;DHT22;682;52.502;13.488;2022-09-09T05:01:48;14.10;1.00
1377;DHT22;682;52.502;13.488;2022-09-09T05:04:15;14.10;1.00
1377;DHT22;682;52.502;13.488;2022-09-09T05:06:42;14.10;1.00
1377;DHT22;682;52.502;13.488;2022-09-09T05:09:11;14.20;1.00
1377;DHT22;682;52.502;13.488;2022-09-09T05:11:38;14.20;1.00
1377;DHT22;682;52.502;13.488;2022-09-09T05:14:07;14.30;1.00
1377;DHT22;682;52.502;13.488;2022-09-09T05:16:36;14.30;1.00
1377;DHT22;682;52.502;13.488;2022-09-09T05:19:05;14.30;1.00
1377;DHT22;682;52.502;13.488;2022-09-09T05:21:33;14.40;1.00
1377;DHT22;682;52.502;13.488;2022-09-09T05:24:00;14.40;1.00
1377;DHT22;682;52.502;13.488;2022-09-09T05:26:27;14.50;1.00
1377;DHT22;682;52.502;13.488;2022-09-09T05:28:54;14.50;1.00
1377;DHT22;682;52.502;13.488;2022-09-09T05:31:22;14.50;1.00
1377;DHT22;682;52.502;13.488;2022-09-09T05:33:53;14.60;1.00
1377;DHT22;682;52.502;13.488;2022-09-09T05:36:22;14.70;1.00
1377;DHT22;682;52.502;13.488;2022-09-09T05:38:49;14.70;1.00
1377;DHT22;682;52.502;13.488;2022-09-09T05:41:17;14.80;1.00
1377;DHT22;682;52.502;13.488;2022-09-09T05:43:47;14.70;1.00
1377;DHT22;682;52.502;13.488;2022-09-09T05:46:16;14.80;1.00
1377;DHT22;682;52.502;13.488;2022-09-09T05:48:46;14.80;1.00
1377;DHT22;682;52.502;13.488;2022-09-09T05:51:17;14.90;1.00
1377;DHT22;682;52.502;13.488;2022-09-09T05:53:49;14.90;1.00
1377;DHT22;682;52.502;13.488;2022-09-09T05:56:18;15.00;1.00
1377;DHT22;682;52.502;13.488;2022-09-09T05:58:54;14.90;1.00
1377;DHT22;682;52.502;13.488;2022-09-09T06:01:25;14.90;1.00
1377;DHT22;682;52.502;13.488;2022-09-09T06:03:53;14.90;1.00
1377;DHT22;682;52.502;13.488;2022-09-09T06:06:24;14.90;1.00
1377;DHT22;682;52.502;13.488;2022-09-09T06:09:07;14.90;1.00
1377;DHT22;682;52.502;13.488;2022-09-09T06:11:39;15.00;1.00
1377;DHT22;682;52.502;13.488;2022-09-09T06:14:08;15.10;1.00
1377;DHT22;682;52.502;13.488;2022-09-09T06:19:11;15.20;1.00
1377;DHT22;682;52.502;13.488;2022-09-09T06:21:39;15.20;1.00
1377;DHT22;682;52.502;13.488;2022-09-09T06:24:16;15.30;1.00
1377;DHT22;682;52.502;13.488;2022-09-09T06:26:47;15.30;1.00
1377;DHT22;682;52.502;13.488;2022-09-09T06:29:20;15.30;1.00
1377;DHT22;682;52.502;13.488;2022-09-09T06:32:06;15.40;1.00
1377;DHT22;682;52.502;13.488;2022-09-09T06:34:34;15.50;1.00
1377;DHT22;682;52.502;13.488;2022-09-09T06:37:09;15.60;1.00
1377;DHT22;682;52.502;13.488;2022-09-09T06:39:37;15.80;1.00
1377;DHT22;682;52.502;13.488;2022-09-09T06:58:09;16.60;1.00
1377;DHT22;682;52.502;13.488;2022-09-09T07:00:37;16.80;1.00
1377;DHT22;682;52.502;13.488;2022-09-09T07:03:06;16.90;1.00
1377;DHT22;682;52.502;13.488;2022-09-09T07:05:34;16.90;1.00
1377;DHT22;682;52.502;13.488;2022-09-09T07:08:03;16.90;1.00
1377;DHT22;682;52.502;13.488;2022-09-09T07:10:32;17.00;1.00
1377;DHT22;682;52.502;13.488;2022-09-09T07:16:12;17.20;1.00
1377;DHT22;682;52.502;13.488;2022-09-09T07:18:47;17.40;1.00
1377;DHT22;682;52.502;13.488;2022-09-09T07:21:18;17.40;1.00
1377;DHT22;682;52.502;13.488;2022-09-09T07:23:48;17.60;1.00
1377;DHT22;682;52.502;13.488;2022-09-09T07:26:30;17.70;1.00
1377;DHT22;682;52.502;13.488;2022-09-09T07:28:57;17.90;1.00
1377;DHT22;682;52.502;13.488;2022-09-09T07:31:29;18.00;1.00
1377;DHT22;682;52.502;13.488;2022-09-09T07:33:58;18.00;1.00
1377;DHT22;682;52.502;13.488;2022-09-09T07:36:27;18.10;1.00
1377;DHT22;682;52.502;13.488;2022-09-09T07:38:57;18.20;1.00
1377;DHT22;682;52.502;13.488;2022-09-09T07:41:26;18.40;1.00
1377;DHT22;682;52.502;13.488;2022-09-09T07:43:53;18.50;1.00
1377;DHT22;682;52.502;13.488;2022-09-09T07:46:22;18.60;1.00
1377;DHT22;682;52.502;13.488;2022-09-09T07:48:54;18.80;1.00
1377;DHT22;682;52.502;13.488;2022-09-09T07:51:23;18.90;1.00
1377;DHT22;682;52.502;13.488;2022-09-09T07:53:54;19.10;1.00
1377;DHT22;682;52.502;13.488;2022-09-09T07:56:23;19.20;1.00
1377;DHT22;682;52.502;13.488;2022-09-09T07:58:51;19.30;1.00
1377;DHT22;682;52.502;13.488;2022-09-09T08:01:19;19.30;1.00
1377;DHT22;682;52.502;13.488;2022-09-09T08:03:51;19.30;1.00
1377;DHT22;682;52.502;13.488;2022-09-09T08:06:20;19.20;1.00
1377;DHT22;682;52.502;13.488;2022-09-09T08:08:50;19.20;1.00
1377;DHT22;682;52.502;13.488;2022-09-09T08:11:22;19.40;1.00
1377;DHT22;682;52.502;13.488;2022-09-09T08:13:50;19.50;1.00
1377;DHT22;682;52.502;13.488;2022-09-09T08:16:21;19.50;1.00
1377;DHT22;682;52.502;13.488;2022-09-09T08:18:48;19.60;1.00
1377;DHT22;682;52.502;13.488;2022-09-09T08:21:17;19.80;1.00
1377;DHT22;682;52.502;13.488;2022-09-09T08:23:51;19.90;1.00
1377;DHT22;682;52.502;13.488;2022-09-09T08:33:19;20.00;1.00
1377;DHT22;682;52.502;13.488;2022-09-09T08:36:02;20.20;1.00
1377;DHT22;682;52.502;13.488;2022-09-09T08:38:51;20.40;1.00
1377;DHT22;682;52.502;13.488;2022-09-09T08:44:59;20.80;1.00
1377;DHT22;682;52.502;13.488;2022-09-09T08:47:41;20.90;1.00
1377;DHT22;682;52.502;13.488;2022-09-09T08:50:21;20.80;1.00
1377;DHT22;682;52.502;13.488;2022-09-09T08:53:02;20.80;1.00
1377;DHT22;682;52.502;13.488;2022-09-09T08:55:40;20.90;1.00
1377;DHT22;682;52.502;13.488;2022-09-09T08:58:17;20.90;1.00
1377;DHT22;682;52.502;13.488;2022-09-09T09:00:57;21.10;1.00
1377;DHT22;682;52.502;13.488;2022-09-09T09:03:43;21.10;1.00
1377;DHT22;682;52.502;13.488;2022-09-09T09:06:25;21.30;1.00
1377;DHT22;682;52.502;13.488;2022-09-09T09:09:02;21.50;1.00
1377;DHT22;682;52.502;13.488;2022-09-09T09:11:37;21.70;1.00
1377;DHT22;682;52.502;13.488;2022-09-09T09:14:10;21.80;1.00
1377;DHT22;682;52.502;13.488;2022-09-09T09:16:43;22.10;1.00
1377;DHT22;682;52.502;13.488;2022-09-09T09:19:18;22.50;1.00
1377;DHT22;682;52.502;13.488;2022-09-09T09:21:51;23.20;1.00
1377;DHT22;682;52.502;13.488;2022-09-09T09:24:29;24.00;1.00
1377;DHT22;682;52.502;13.488;2022-09-09T09:27:19;24.90;1.00
1377;DHT22;682;52.502;13.488;2022-09-09T09:29:50;25.50;1.00
1377;DHT22;682;52.502;13.488;2022-09-09T09:32:31;26.50;1.00
1377;DHT22;682;52.502;13.488;2022-09-09T09:35:02;27.60;1.00
1377;DHT22;682;52.502;13.488;2022-09-09T09:37:35;27.90;1.00
1377;DHT22;682;52.502;13.488;2022-09-09T09:40:10;28.80;1.00
1377;DHT22;682;52.502;13.488;2022-09-09T09:42:49;29.90;1.00
1377;DHT22;682;52.502;13.488;2022-09-09T09:45:28;30.40;1.00
1377;DHT22;682;52.502;13.488;2022-09-09T09:48:02;31.00;1.00
1377;DHT22;682;52.502;13.488;2022-09-09T09:50:30;31.70;1.00
1377;DHT22;682;52.502;13.488;2022-09-09T09:53:02;32.20;1.00
1377;DHT22;682;52.502;13.488;2022-09-09T09:55:51;32.40;1.00
1377;DHT22;682;52.502;13.488;2022-09-09T09:58:32;32.50;1.00
1377;DHT22;682;52.502;13.488;2022-09-09T10:01:02;33.00;1.00
1377;DHT22;682;52.502;13.488;2022-09-09T10:03:36;33.20;1.00
1377;DHT22;682;52.502;13.488;2022-09-09T10:06:08;32.90;1.00
1377;DHT22;682;52.502;13.488;2022-09-09T10:08:45;33.30;1.00
1377;DHT22;682;52.502;13.488;2022-09-09T10:11:30;33.20;1.00
1377;DHT22;682;52.502;13.488;2022-09-09T10:14:11;34.20;1.00
1377;DHT22;682;52.502;13.488;2022-09-09T10:17:01;33.40;1.00
1377;DHT22;682;52.502;13.488;2022-09-09T10:19:33;31.70;1.00
1377;DHT22;682;52.502;13.488;2022-09-09T10:22:15;31.10;1.00
1377;DHT22;682;52.502;13.488;2022-09-09T10:25:13;31.40;1.00
1377;DHT22;682;52.502;13.488;2022-09-09T10:27:57;30.90;1.00
1377;DHT22;682;52.502;13.488;2022-09-09T10:30:39;30.60;1.00
1377;DHT22;682;52.502;13.488;2022-09-09T10:33:20;30.30;1.00
1377;DHT22;682;52.502;13.488;2022-09-09T10:36:01;30.00;1.00
1377;DHT22;682;52.502;13.488;2022-09-09T10:38:45;29.50;1.00
1377;DHT22;682;52.502;13.488;2022-09-09T10:41:18;29.10;1.00
1377;DHT22;682;52.502;13.488;2022-09-09T10:49:59;30.90;1.00
1377;DHT22;682;52.502;13.488;2022-09-09T10:52:36;29.80;1.00
1377;DHT22;682;52.502;13.488;2022-09-09T10:55:10;28.80;1.00
1377;DHT22;682;52.502;13.488;2022-09-09T10:57:47;28.70;1.00
1377;DHT22;682;52.502;13.488;2022-09-09T11:00:19;28.40;1.00
1377;DHT22;682;52.502;13.488;2022-09-09T11:02:55;29.60;1.00
1377;DHT22;682;52.502;13.488;2022-09-09T11:05:31;31.40;1.00
1377;DHT22;682;52.502;13.488;2022-09-09T11:08:05;33.00;1.00
1377;DHT22;682;52.502;13.488;2022-09-09T11:10:38;34.50;1.00
1377;DHT22;682;52.502;13.488;2022-09-09T11:13:19;34.30;1.00
1377;DHT22;682;52.502;13.488;2022-09-09T11:15:54;35.10;1.00
1377;DHT22;682;52.502;13.488;2022-09-09T11:18:38;36.30;1.00
1377;DHT22;682;52.502;13.488;2022-09-09T11:21:28;35.70;1.00
1377;DHT22;682;52.502;13.488;2022-09-09T11:24:08;35.40;1.00
1377;DHT22;682;52.502;13.488;2022-09-09T11:26:39;36.60;1.00
1377;DHT22;682;52.502;13.488;2022-09-09T11:29:35;36.70;1.00
1377;DHT22;682;52.502;13.488;2022-09-09T11:32:18;36.90;1.00
1377;DHT22;682;52.502;13.488;2022-09-09T11:35:01;37.10;1.00
1377;DHT22;682;52.502;13.488;2022-09-09T11:37:50;36.80;1.00
1377;DHT22;682;52.502;13.488;2022-09-09T11:40:25;37.10;1.00
1377;DHT22;682;52.502;13.488;2022-09-09T11:43:04;37.70;1.00
1377;DHT22;682;52.502;13.488;2022-09-09T11:45:33;38.50;1.00
1377;DHT22;682;52.502;13.488;2022-09-09T11:48:26;39.00;1.00
1377;DHT22;682;52.502;13.488;2022-09-09T11:51:06;39.50;1.00
1377;DHT22;682;52.502;13.488;2022-09-09T11:53:52;39.20;1.00
1377;DHT22;682;52.502;13.488;2022-09-09T11:56:27;35.90;1.00
1377;DHT22;682;52.502;13.488;2022-09-09T11:59:19;34.70;1.00
1377;DHT22;682;52.502;13.488;2022-09-09T12:02:17;33.20;1.00
1377;DHT22;682;52.502;13.488;2022-09-09T12:04:59;30.40;1.00
1377;DHT22;682;52.502;13.488;2022-09-09T12:07:38;29.40;1.00
1377;DHT22;682;52.502;13.488;2022-09-09T12:10:26;29.40;1.00
1377;DHT22;682;52.502;13.488;2022-09-09T12:13:09;32.10;1.00
1377;DHT22;682;52.502;13.488;2022-09-09T12:15:56;32.30;1.00
1377;DHT22;682;52.502;13.488;2022-09-09T12:18:39;33.70;1.00
1377;DHT22;682;52.502;13.488;2022-09-09T12:21:32;36.30;1.00
1377;DHT22;682;52.502;13.488;2022-09-09T12:24:28;36.90;1.00
1377;DHT22;682;52.502;13.488;2022-09-09T12:27:06;36.70;1.00
1377;DHT22;682;52.502;13.488;2022-09-09T12:29:49;37.10;1.00
1377;DHT22;682;52.502;13.488;2022-09-09T12:32:37;37.10;1.00
1377;DHT22;682;52.502;13.488;2022-09-09T12:35:18;35.80;1.00
1377;DHT22;682;52.502;13.488;2022-09-09T12:38:13;35.00;1.00
1377;DHT22;682;52.502;13.488;2022-09-09T12:40:56;33.90;1.00
1377;DHT22;682;52.502;13.488;2022-09-09T12:43:27;33.50;1.00
1377;DHT22;682;52.502;13.488;2022-09-09T12:46:00;32.60;1.00
1377;DHT22;682;52.502;13.488;2022-09-09T12:48:54;32.00;1.00
1377;DHT22;682;52.502;13.488;2022-09-09T12:51:30;31.20;1.00
1377;DHT22;682;52.502;13.488;2022-09-09T12:53:59;30.00;1.00
1377;DHT22;682;52.502;13.488;2022-09-09T12:56:35;28.80;1.00
1377;DHT22;682;52.502;13.488;2022-09-09T12:59:35;28.50;1.00
1377;DHT22;682;52.502;13.488;2022-09-09T13:02:16;28.40;1.00
1377;DHT22;682;52.502;13.488;2022-09-09T13:04:46;28.00;1.00
1377;DHT22;682;52.502;13.488;2022-09-09T13:07:13;27.70;1.00
1377;DHT22;682;52.502;13.488;2022-09-09T13:10:05;27.50;1.00
1377;DHT22;682;52.502;13.488;2022-09-09T13:12:34;27.50;1.00
1377;DHT22;682;52.502;13.488;2022-09-09T13:15:16;27.40;1.00
1377;DHT22;682;52.502;13.488;2022-09-09T13:17:53;27.20;1.00
1377;DHT22;682;52.502;13.488;2022-09-09T13:20:22;27.10;1.00
1377;DHT22;682;52.502;13.488;2022-09-09T13:22:51;27.10;1.00
1377;DHT22;682;52.502;13.488;2022-09-09T13:25:21;27.30;1.00
1377;DHT22;682;52.502;13.488;2022-09-09T13:27:56;27.30;1.00
1377;DHT22;682;52.502;13.488;2022-09-09T13:30:26;27.20;1.00
1377;DHT22;682;52.502;13.488;2022-09-09T13:33:06;27.10;1.00
1377;DHT22;682;52.502;13.488;2022-09-09T13:35:58;27.00;1.00
1377;DHT22;682;52.502;13.488;2022-09-09T13:38:33;26.90;1.00
1377;DHT22;682;52.502;13.488;2022-09-09T13:41:06;26.70;1.00
1377;DHT22;682;52.502;13.488;2022-09-09T13:43:38;26.70;1.00
1377;DHT22;682;52.502;13.488;2022-09-09T13:46:27;26.70;1.00
1377;DHT22;682;52.502;13.488;2022-09-09T13:48:59;26.60;1.00
1377;DHT22;682;52.502;13.488;2022-09-09T13:51:35;26.40;1.00
1377;DHT22;682;52.502;13.488;2022-09-09T13:54:03;26.20;1.00
1377;DHT22;682;52.502;13.488;2022-09-09T14:12:33;26.50;1.00
1377;DHT22;682;52.502;13.488;2022-09-09T14:17:44;25.50;1.00
1377;DHT22;682;52.502;13.488;2022-09-09T14:20:16;25.30;1.00
1377;DHT22;682;52.502;13.488;2022-09-09T14:22:46;25.30;1.00
1377;DHT22;682;52.502;13.488;2022-09-09T14:25:27;25.50;1.00
1377;DHT22;682;52.502;13.488;2022-09-09T14:28:05;25.40;1.00
1377;DHT22;682;52.502;13.488;2022-09-09T14:30:45;25.20;1.00
1377;DHT22;682;52.502;13.488;2022-09-09T14:33:15;25.10;1.00
1377;DHT22;682;52.502;13.488;2022-09-09T14:35:44;25.00;1.00
1377;DHT22;682;52.502;13.488;2022-09-09T14:38:13;25.00;1.00
1377;DHT22;682;52.502;13.488;2022-09-09T14:40:46;24.90;1.00
1377;DHT22;682;52.502;13.488;2022-09-09T14:43:15;24.80;1.00
1377;DHT22;682;52.502;13.488;2022-09-09T14:45:48;24.70;1.00
1377;DHT22;682;52.502;13.488;2022-09-09T14:48:17;24.80;1.00
1377;DHT22;682;52.502;13.488;2022-09-09T14:50:53;25.00;1.00
1377;DHT22;682;52.502;13.488;2022-09-09T14:53:26;25.20;1.00
1377;DHT22;682;52.502;13.488;2022-09-09T14:55:55;25.20;1.00
1377;DHT22;682;52.502;13.488;2022-09-09T14:58:34;25.20;1.00
1377;DHT22;682;52.502;13.488;2022-09-09T15:01:06;25.10;1.00
1377;DHT22;682;52.502;13.488;2022-09-09T15:03:35;24.90;1.00
1377;DHT22;682;52.502;13.488;2022-09-09T15:06:23;24.90;1.00
1377;DHT22;682;52.502;13.488;2022-09-09T15:08:54;24.80;1.00
1377;DHT22;682;52.502;13.488;2022-09-09T15:11:27;24.70;1.00
1377;DHT22;682;52.502;13.488;2022-09-09T15:14:04;24.60;1.00
1377;DHT22;682;52.502;13.488;2022-09-09T15:16:34;24.50;1.00
1377;DHT22;682;52.502;13.488;2022-09-09T15:19:04;24.40;1.00
1377;DHT22;682;52.502;13.488;2022-09-09T15:24:06;24.40;1.00
1377;DHT22;682;52.502;13.488;2022-09-09T15:26:37;24.50;1.00
1377;DHT22;682;52.502;13.488;2022-09-09T15:29:12;24.50;1.00
1377;DHT22;682;52.502;13.488;2022-09-09T15:31:41;24.60;1.00
1377;DHT22;682;52.502;13.488;2022-09-09T15:34:15;24.70;1.00
1377;DHT22;682;52.502;13.488;2022-09-09T15:36:43;24.70;1.00
1377;DHT22;682;52.502;13.488;2022-09-09T15:39:14;24.90;1.00
1377;DHT22;682;52.502;13.488;2022-09-09T15:41:53;24.90;1.00
1377;DHT22;682;52.502;13.488;2022-09-09T15:44:25;24.60;1.00
1377;DHT22;682;52.502;13.488;2022-09-09T15:46:56;24.40;1.00
1377;DHT22;682;52.502;13.488;2022-09-09T15:49:26;24.30;1.00
1377;DHT22;682;52.502;13.488;2022-09-09T15:51:57;24.20;1.00
1377;DHT22;682;52.502;13.488;2022-09-09T15:54:26;24.20;1.00
1377;DHT22;682;52.502;13.488;2022-09-09T15:56:58;24.20;1.00
1377;DHT22;682;52.502;13.488;2022-09-09T15:59:38;24.20;1.00
1377;DHT22;682;52.502;13.488;2022-09-09T16:02:16;24.20;1.00
1377;DHT22;682;52.502;13.488;2022-09-09T16:04:47;24.10;1.00
1377;DHT22;682;52.502;13.488;2022-09-09T16:07:24;24.10;1.00
1377;DHT22;682;52.502;13.488;2022-09-09T16:09:55;24.10;1.00
1377;DHT22;682;52.502;13.488;2022-09-09T16:12:24;24.00;1.00
1377;DHT22;682;52.502;13.488;2022-09-09T16:14:56;23.90;1.00
1377;DHT22;682;52.502;13.488;2022-09-09T16:17:23;23.90;1.00
1377;DHT22;682;52.502;13.488;2022-09-09T16:20:06;23.90;1.00
1377;DHT22;682;52.502;13.488;2022-09-09T16:22:34;23.80;1.00
1377;DHT22;682;52.502;13.488;2022-09-09T16:25:01;23.70;1.00
1377;DHT22;682;52.502;13.488;2022-09-09T16:27:31;23.70;1.00
1377;DHT22;682;52.502;13.488;2022-09-09T16:30:06;23.60;1.00
1377;DHT22;682;52.502;13.488;2022-09-09T16:32:34;23.60;1.00
1377;DHT22;682;52.502;13.488;2022-09-09T16:35:07;23.40;1.00
1377;DHT22;682;52.502;13.488;2022-09-09T16:37:44;23.40;1.00
1377;DHT22;682;52.502;13.488;2022-09-09T16:40:26;23.30;1.00
1377;DHT22;682;52.502;13.488;2022-09-09T16:43:08;23.20;1.00
1377;DHT22;682;52.502;13.488;2022-09-09T16:45:49;23.00;1.00
1377;DHT22;682;52.502;13.488;2022-09-09T16:48:16;23.00;1.00
1377;DHT22;682;52.502;13.488;2022-09-09T16:50:43;22.70;1.00
1377;DHT22;682;52.502;13.488;2022-09-09T16:53:15;22.50;1.00
1377;DHT22;682;52.502;13.488;2022-09-09T16:55:42;22.30;1.00
1377;DHT22;682;52.502;13.488;2022-09-09T16:58:10;22.20;1.00
1377;DHT22;682;52.502;13.488;2022-09-09T17:00:37;22.10;1.00
1377;DHT22;682;52.502;13.488;2022-09-09T17:03:06;21.90;1.00
1377;DHT22;682;52.502;13.488;2022-09-09T17:05:35;21.80;1.00
1377;DHT22;682;52.502;13.488;2022-09-09T17:08:09;21.60;1.00
1377;DHT22;682;52.502;13.488;2022-09-09T17:10:41;21.60;1.00
1377;DHT22;682;52.502;13.488;2022-09-09T17:13:08;21.40;1.00
1377;DHT22;682;52.502;13.488;2022-09-09T17:15:39;21.40;1.00
1377;DHT22;682;52.502;13.488;2022-09-09T17:18:10;21.20;1.00
1377;DHT22;682;52.502;13.488;2022-09-09T17:20:37;21.20;1.00
1377;DHT22;682;52.502;13.488;2022-09-09T17:23:05;21.10;1.00
1377;DHT22;682;52.502;13.488;2022-09-09T17:25:36;20.90;1.00
1377;DHT22;682;52.502;13.488;2022-09-09T17:28:03;20.80;1.00
1377;DHT22;682;52.502;13.488;2022-09-09T17:30:34;20.70;1.00
1377;DHT22;682;52.502;13.488;2022-09-09T17:33:05;20.70;1.00
1377;DHT22;682;52.502;13.488;2022-09-09T17:35:33;20.60;1.00
1377;DHT22;682;52.502;13.488;2022-09-09T17:38:06;20.50;1.00
1377;DHT22;682;52.502;13.488;2022-09-09T17:40:36;20.40;1.00
1377;DHT22;682;52.502;13.488;2022-09-09T17:43:03;20.40;1.00
1377;DHT22;682;52.502;13.488;2022-09-09T17:45:30;20.20;1.00
1377;DHT22;682;52.502;13.488;2022-09-09T17:48:02;20.10;1.00
1377;DHT22;682;52.502;13.488;2022-09-09T17:50:33;20.00;1.00
1377;DHT22;682;52.502;13.488;2022-09-09T17:53:06;19.80;1.00
1377;DHT22;682;52.502;13.488;2022-09-09T17:55:35;19.70;1.00
1377;DHT22;682;52.502;13.488;2022-09-09T17:58:02;19.50;1.00
1377;DHT22;682;52.502;13.488;2022-09-09T18:00:30;19.40;1.00
1377;DHT22;682;52.502;13.488;2022-09-09T18:02:59;19.30;1.00
1377;DHT22;682;52.502;13.488;2022-09-09T18:05:26;19.20;1.00
1377;DHT22;682;52.502;13.488;2022-09-09T18:07:55;19.10;1.00
1377;DHT22;682;52.502;13.488;2022-09-09T18:10:24;19.00;1.00
1377;DHT22;682;52.502;13.488;2022-09-09T18:12:50;18.90;1.00
1377;DHT22;682;52.502;13.488;2022-09-09T18:15:18;18.70;1.00
1377;DHT22;682;52.502;13.488;2022-09-09T18:17:47;18.70;1.00
1377;DHT22;682;52.502;13.488;2022-09-09T18:20:14;18.60;1.00
1377;DHT22;682;52.502;13.488;2022-09-09T18:22:47;18.50;1.00
1377;DHT22;682;52.502;13.488;2022-09-09T18:25:17;18.40;1.00
1377;DHT22;682;52.502;13.488;2022-09-09T18:27:54;18.30;1.00
1377;DHT22;682;52.502;13.488;2022-09-09T18:30:25;18.20;1.00
1377;DHT22;682;52.502;13.488;2022-09-09T18:32:54;18.20;1.00
1377;DHT22;682;52.502;13.488;2022-09-09T18:35:22;18.10;1.00
1377;DHT22;682;52.502;13.488;2022-09-09T18:37:49;18.00;1.00
1377;DHT22;682;52.502;13.488;2022-09-09T18:40:17;18.00;1.00
1377;DHT22;682;52.502;13.488;2022-09-09T18:42:46;17.90;1.00
1377;DHT22;682;52.502;13.488;2022-09-09T18:45:13;17.80;1.00
1377;DHT22;682;52.502;13.488;2022-09-09T18:47:42;17.70;1.00
1377;DHT22;682;52.502;13.488;2022-09-09T18:50:09;17.70;1.00
1377;DHT22;682;52.502;13.488;2022-09-09T18:52:37;17.70;1.00
1377;DHT22;682;52.502;13.488;2022-09-09T18:55:05;17.70;1.00
1377;DHT22;682;52.502;13.488;2022-09-09T18:57:36;17.60;1.00
1377;DHT22;682;52.502;13.488;2022-09-09T19:00:04;17.60;1.00
1377;DHT22;682;52.502;13.488;2022-09-09T19:02:37;17.50;1.00
1377;DHT22;682;52.502;13.488;2022-09-09T19:05:04;17.50;1.00
1377;DHT22;682;52.502;13.488;2022-09-09T19:07:33;17.50;1.00
1377;DHT22;682;52.502;13.488;2022-09-09T19:10:00;17.50;1.00
1377;DHT22;682;52.502;13.488;2022-09-09T19:12:27;17.40;1.00
1377;DHT22;682;52.502;13.488;2022-09-09T19:14:55;17.40;1.00
1377;DHT22;682;52.502;13.488;2022-09-09T19:17:22;17.40;1.00
1377;DHT22;682;52.502;13.488;2022-09-09T19:19:50;17.40;1.00
1377;DHT22;682;52.502;13.488;2022-09-09T19:22:19;17.40;1.00
1377;DHT22;682;52.502;13.488;2022-09-09T19:24:46;17.40;1.00
1377;DHT22;682;52.502;13.488;2022-09-09T19:27:14;17.40;1.00
1377;DHT22;682;52.502;13.488;2022-09-09T19:29:41;17.40;1.00
1377;DHT22;682;52.502;13.488;2022-09-09T19:32:10;17.40;1.00
1377;DHT22;682;52.502;13.488;2022-09-09T19:34:37;17.30;1.00
1377;DHT22;682;52.502;13.488;2022-09-09T19:37:04;17.30;1.00
1377;DHT22;682;52.502;13.488;2022-09-09T19:39:35;17.30;1.00